Warm Springs Summit, Nevada Weather observations

Data are for observation ending at time listed.
 Day   Time    Ave.   Ave.  Ave.  Vector   Max.   Stn.    Total    Solar   Ave.  
  of    of     Air    Rel.  Wind   Wind    Wind   Baro.  Precip.   Rad.    Soil  
Year   Day     Temp.  Hum.  Speed  Dir.    Gust   Pres.                    Temp. 
2014   (PST)    F      %     mph   deg.    mph     mb.     in.     W/m2     F   
------------------------------------------------------------------------------
 232    8:20   59.0    39   14.6   265     17.8   774.0    0.00     602    61.7
 232    8:30   59.2    39   15.4   263     18.5   774.1    0.00     632    61.8
 232    8:40   59.8    40   13.9   255     18.2   774.3    0.00     661    61.8
 232    8:50   60.3    39   13.9   256     19.0   774.4    0.00     690    61.9
 232    9:00   60.7    36   14.6   261     18.5   774.4    0.00     715    62.0
 232    9:10   61.3    36   14.4   255     18.2   774.5    0.00     738    62.1
 232    9:20   61.7    37   13.6   255     19.3   774.5    0.00     763    62.2
 232    9:30   62.2    38   14.6   252     20.2   774.5    0.00     787    62.3
 232    9:40   62.3    37   13.7   254     20.2   774.5    0.00     808    62.5
 232    9:50   64.7    35   11.0   225     19.3   774.6    0.00     831    62.6
 232   10:00   64.1    34   11.8   258     21.8   774.6    0.00     851    62.7
 232   10:10   65.2    32    7.0   220     16.0   774.7    0.00     871    62.9
 232   10:20   65.5    32    9.2   240     19.5   774.7    0.00     897    63.0
 232   10:30   65.7    31   13.1   242     21.4   774.6    0.00     930    63.2
 232   10:40   66.3    30   15.0   248     23.1   774.5    0.00     907    63.4
 232   10:50   66.3    31   14.4   259     23.6   774.4    0.00     928    63.6
 232   11:00   65.7    30   15.2   260     23.3   774.4    0.00     511    63.8
 232   11:10   65.0    31   10.5   216     16.7   774.5    0.00     285    64.0
 232   11:20   65.8    30   11.6   186     20.6   774.4    0.00     301    64.3
 232   11:30   66.8    29   13.0   161     21.8   774.3    0.00     445    64.5
 232   11:40   65.7    28   11.8   222     21.2   774.3    0.00     375    64.7
 232   11:50   65.7    28   10.5   241     21.3   774.2    0.00     623    64.9
 232   12:00   66.7    27   12.3   242     21.8   774.2    0.00     569    65.1
 232   12:10   66.3    27    9.9   213     21.9   774.2    0.00     294    65.2
 232   12:20   67.0    27   14.5   242     22.6   774.0    0.00     683    65.4
 232   12:30   66.5    26   16.9   213     24.6   773.9    0.00     347    65.5
 232   12:40   66.4    25   11.4   206     23.1   774.0    0.00     266    65.7
 232   12:50   66.3    25   15.4   196     28.0   773.9    0.00     330    65.8
 232   13:00   66.2    24   14.4   207     22.9   773.8    0.00     256    65.9
 232   13:10   66.7    22   18.3   226     28.2   773.6    0.00     523    66.0
 232   13:20   67.9    22   15.1   209     27.0   773.6    0.00     668    66.1
 232   13:30   68.7    20   17.8   219     27.8   773.5    0.00     950    66.2
 232   13:40   68.8    20   16.1   226     25.6   773.6    0.00     945    66.2
 232   13:50   69.7    19   15.1   220     25.3   773.6    0.00     913    66.3
 232   14:00   70.2    19   14.7   194     24.6   773.5    0.00     856    66.4
 232   14:10   69.3    20   16.7   210     26.1   773.3    0.00     824    66.4
 232   14:20   69.2    20   17.2   216     26.0   773.2    0.00     801    66.5
 232   14:30   68.5    19   23.0   227     36.5   773.0    0.00     794    66.6
 232   14:40   68.8    20   19.7   236     32.1   773.1    0.00     768    66.7
 232   14:50   69.0    18   19.5   210     29.7   773.1    0.00     717    66.8
 232   15:00   69.1    19   14.5   233     23.3   773.2    0.00     687    66.9
 232   15:10   68.8    19   19.6   237     29.6   773.1    0.00     657    67.0
 232   15:20   68.3    20   21.3   238     32.9   773.0    0.00     625    67.1
 232   15:30   68.5    20   14.7   234     27.0   773.1    0.00     595    67.2
 232   15:40   68.3    21   19.8   247     31.3   772.9    0.00     563    67.3
 232   15:50   68.5    20   21.6   215     33.8   772.8    0.00     528    67.4
 232   16:00   68.8    21   18.9   208     34.6   772.9    0.00     495    67.5
 232   16:10   67.9    22   19.5   231     29.7   772.9    0.00     462    67.5
 232   16:20   67.9    23   19.1   212     28.4   772.9    0.00     428    67.6
 232   16:30   67.8    25   17.1   215     30.5   772.9    0.00     393    67.6
 232   16:40   68.0    24   16.3   198     29.4   772.9    0.00     359    67.7
 232   16:50   67.6    24   18.4   209     24.6   772.9    0.00     324    67.7
 232   17:00   67.6    24   16.3   204     22.3   773.0    0.00     288    67.7
 232   17:10   67.4    24   17.8   211     24.4   772.9    0.00     253    67.7
 232   17:20   66.9    24   19.1   209     24.5   772.9    0.00     219    67.7
 232   17:30   66.7    25   17.2   212     26.7   772.9    0.00     185    67.7
 232   17:40   66.3    25   17.3   211     25.4   772.9    0.00     154    67.7
 232   17:50   66.1    25   13.7   213     19.2   773.0    0.00     122    67.7
 232   18:00   65.6    26   16.1   204     22.4   773.0    0.00      83    67.7
 232   18:10   65.2    27   12.6   203     16.5   773.1    0.00      48    67.7
 232   18:20   64.5    27   16.6   198     22.5   773.0    0.00      22    67.6
 232   18:30   63.7    28   16.6   206     20.7   773.1    0.00       7    67.6
 232   18:40   63.5    28   18.6   212     24.8   773.0    0.00       2    67.5
 232   18:50   62.9    28   19.8   202     22.9   773.0    0.00       0    67.5
 232   19:00   62.8    28   19.5   204     24.2   773.1    0.00       0    67.4
 232   19:10   62.7    28   18.5   202     22.7   773.2    0.00       0    67.3
 232   19:20   62.6    27   18.3   204     21.1   773.3    0.00       0    67.3
 232   19:30   62.2    28   16.1   209     19.6   773.5    0.00       0    67.2
 232   19:40   62.0    28   17.5   204     21.9   773.6    0.00       0    67.1
 232   19:50   61.8    29   17.6   198     21.9   773.7    0.00       0    67.0
 232   20:00   61.7    29   18.2   201     23.1   773.8    0.00       0    66.9
 232   20:10   61.6    29   17.0   199     20.5   773.8    0.00       0    66.8
 232   20:20   61.2    30   16.3   206     20.4   773.9    0.00       0    66.7
 232   20:30   61.1    30   13.6   219     17.5   774.0    0.00       0    66.6
 232   20:40   61.0    30   13.2   219     17.4   774.1    0.00       0    66.5
 232   20:50   61.1    29   14.4   216     19.9   774.1    0.00       0    66.4
 232   21:00   61.0    30   15.9   214     19.8   774.0    0.00       0    66.3
 232   21:10   60.6    30   17.5   215     21.9   773.9    0.00       0    66.2
 232   21:20   60.5    30   16.6   216     21.0   774.0    0.00       0    66.1
 232   21:30   60.1    31   14.8   225     18.1   774.0    0.00       0    66.0
 232   21:40   60.0    31   12.6   228     16.6   774.2    0.00       0    65.9
 232   21:50   60.1    31   12.0   231     14.9   774.2    0.00       0    65.8
 232   22:00   59.7    32   11.1   234     13.3   774.2    0.00       0    65.7
 232   22:10   59.7    32   11.6   236     15.5   774.2    0.00       0    65.6
 232   22:20   59.8    32   11.4   237     13.9   774.1    0.00       0    65.5
 232   22:30   59.1    33   12.4   242     17.1   774.2    0.00       0    65.4
 232   22:40   59.4    33   11.7   232     14.8   774.3    0.00       0    65.3
 232   22:50   59.5    33   11.5   221     14.9   774.3    0.00       0    65.2
 232   23:00   59.3    33   11.5   224     14.4   774.3    0.00       0    65.1
 232   23:10   59.3    33   12.7   229     15.6   774.3    0.00       0    65.0
 232   23:20   59.5    33   15.2   232     18.6   774.2    0.00       0    64.9
 232   23:30   59.3    33   17.5   236     23.0   774.1    0.00       0    64.8
 232   23:40   59.3    33   19.9   229     28.7   774.0    0.00       0    64.8
 232   23:50   59.2    33   21.0   230     27.5   773.9    0.00       0    64.7
 233    0:00   59.3    33   21.0   226     28.4   773.9    0.00       0    64.6
 233    0:10   59.0    34   21.4   235     27.0   773.9    0.00       0    64.5
 233    0:20   58.6    34   20.8   234     27.6   774.0    0.00       0    64.4
 233    0:30   58.5    35   22.4   234     31.5   773.9    0.00       0    64.3
 233    0:40   58.5    35   23.1   233     31.1   773.9    0.00       0    64.2
 233    0:50   58.4    36   22.5   231     29.2   773.8    0.00       0    64.1
 233    1:00   58.3    36   22.7   231     32.4   773.8    0.00       0    64.1
 233    1:10   58.2    37   22.1   230     30.0   773.8    0.00       0    64.0
 233    1:20   58.1    38   23.0   231     30.1   773.9    0.00       0    63.9
 233    1:30   57.9    39   21.6   232     28.9   773.9    0.00       0    63.8
 233    1:40   57.5    40   21.3   239     27.2   774.0    0.00       0    63.8
 233    1:50   57.3    40   21.7   243     28.3   774.0    0.00       0    63.7
 233    2:00   57.3    40   21.4   239     27.0   774.1    0.00       0    63.6
 233    2:10   57.5    40   22.0   236     27.6   774.1    0.00       0    63.5
 233    2:20   57.5    41   22.9   238     29.5   774.1    0.00       0    63.4
 233    2:30   57.3    42   22.0   236     27.9   774.1    0.00       0    63.4
 233    2:40   57.4    42   22.1   235     27.7   774.2    0.00       0    63.3
 233    2:50   57.4    42   22.0   235     29.1   774.1    0.00       0    63.2
 233    3:00   57.1    43   20.9   238     27.2   774.1    0.00       0    63.2
 233    3:10   57.0    44   20.7   242     26.6   774.1    0.00       0    63.1
 233    3:20   56.8    44   20.7   242     25.4   774.1    0.00       0    63.0
 233    3:30   56.7    45   20.4   238     25.6   774.1    0.00       0    63.0
 233    3:40   56.7    45   21.7   236     28.5   774.0    0.00       0    62.9
 233    3:50   56.7    46   21.4   238     27.2   774.1    0.00       0    62.9
 233    4:00   56.4    46   20.0   240     25.5   774.1    0.00       0    62.8
 233    4:10   56.2    46   20.0   243     24.0   774.2    0.00       0    62.7
 233    4:20   56.3    46   20.3   244     24.5   774.2    0.00       0    62.7
 233    4:30   56.2    46   19.4   243     23.8   774.3    0.00       0    62.6
 233    4:40   55.9    46   18.4   246     22.9   774.4    0.00       0    62.5
 233    4:50   55.7    46   18.2   245     22.6   774.5    0.00       0    62.5
 233    5:00   55.7    46   18.3   246     21.5   774.6    0.00       1    62.4
 233    5:10   55.4    47   16.6   248     22.0   774.7    0.00       5    62.4
 233    5:20   55.6    46   18.0   246     22.6   774.8    0.00       9    62.3
 233    5:30   56.0    45   17.3   244     24.2   774.9    0.00      29    62.3
 233    5:40   56.0    45   15.4   240     21.2   775.1    0.00      62    62.2
 233    5:50   56.3    44   16.4   236     19.9   775.2    0.00     101    62.2
 233    6:00   56.6    44   16.8   236     21.9   775.2    0.00     135    62.1
 233    6:10   56.5    45   16.8   238     22.1   775.2    0.00     167    62.0
 233    6:20   56.6    45   16.8   242     20.1   775.3    0.00     199    62.0
 233    6:30   56.8    44   17.1   238     20.0   775.3    0.00     232    61.9
 233    6:40   56.9    44   16.4   239     20.1   775.4    0.00     266    61.9
 233    6:50   57.1    44   16.6   236     20.7   775.5    0.00     299    61.8
 233    7:00   57.3    44   16.1   234     19.0   775.5    0.00     335    61.8
 233    7:10   57.6    44   16.7   236     20.4   775.6    0.00     371    61.8
 233    7:20   57.9    43   15.7   236     22.5   775.7    0.00     406    61.7
 233    7:30   58.4    42   15.0   233     22.7   775.8    0.00     438    61.7
 233    7:40   58.9    42   14.3   232     17.8   775.9    0.00     474    61.7
 233    7:50   59.3    41   15.3   223     24.2   775.8    0.00     507    61.7
 233    8:00   59.7    40   15.3   236     20.9   776.0    0.00     540    61.7
 233    8:10   60.1    40   15.2   235     21.8   776.0    0.00     572    61.8

Return to Warm Springs Summit, Nevada graphs page.


Western Regional Climate Center,wrcc@dri.edu